createdAt,value
2023-03-25T00:01:09.071Z,7.13
2023-03-25T00:03:41.987Z,7.22
2023-03-25T00:06:10.844Z,7.53
2023-03-25T00:08:38.202Z,9.98
2023-03-25T00:11:06.838Z,7.82
2023-03-25T00:13:34.179Z,6.05
2023-03-25T00:16:01.871Z,4.78
2023-03-25T00:18:33.708Z,10.35
2023-03-25T00:21:02.578Z,10.13
2023-03-25T00:23:31.722Z,9.85
2023-03-25T00:26:01.925Z,8.75
2023-03-25T00:28:31.292Z,9.43
2023-03-25T00:31:09.405Z,9.20
2023-03-25T00:33:36.149Z,7.60
2023-03-25T00:36:04.595Z,6.82
2023-03-25T00:38:35.084Z,9.93
2023-03-25T00:41:13.481Z,9.27
2023-03-25T00:43:40.973Z,7.90
2023-03-25T00:46:08.027Z,10.15
2023-03-25T00:48:34.897Z,8.43
2023-03-25T00:51:07.305Z,7.88
2023-03-25T00:53:35.082Z,7.43
2023-03-25T00:56:02.588Z,9.77
2023-03-25T00:58:29.596Z,8.50
2023-03-25T01:00:57.702Z,6.97
2023-03-25T01:03:31.074Z,12.02
2023-03-25T01:05:57.914Z,6.40
2023-03-25T01:08:25.258Z,6.95
2023-03-25T01:10:54.419Z,6.10
2023-03-25T01:13:22.413Z,10.63
2023-03-25T01:15:49.655Z,9.82
2023-03-25T01:18:16.653Z,8.35
2023-03-25T01:20:43.756Z,10.48
2023-03-25T01:23:10.721Z,5.28
2023-03-25T01:25:38.102Z,11.38
2023-03-25T01:28:05.665Z,5.72
2023-03-25T01:30:32.674Z,8.98
2023-03-25T01:32:59.495Z,6.63
2023-03-25T01:35:26.259Z,12.55
2023-03-25T01:37:54.620Z,6.65
2023-03-25T01:40:24.264Z,6.60
2023-03-25T01:42:51.650Z,9.40
2023-03-25T01:45:26.382Z,9.73
2023-03-25T01:48:00.300Z,4.03
2023-03-25T01:50:29.437Z,8.10
2023-03-25T01:52:58.334Z,8.40
2023-03-25T01:55:27.435Z,8.40
2023-03-25T01:57:56.689Z,5.65
2023-03-25T02:00:23.797Z,7.95
2023-03-25T02:02:50.853Z,4.53
2023-03-25T02:05:30.890Z,6.82
2023-03-25T02:07:57.974Z,7.82
2023-03-25T02:10:24.872Z,7.85
2023-03-25T02:12:51.847Z,9.10
2023-03-25T02:15:19.035Z,5.82
2023-03-25T02:18:14.393Z,8.40
2023-03-25T02:21:02.946Z,9.52
2023-03-25T02:23:45.921Z,6.80
2023-03-25T02:26:42.431Z,6.75
2023-03-25T02:29:43.155Z,7.50
2023-03-25T02:32:15.899Z,7.97
2023-03-25T02:34:54.583Z,7.20
2023-03-25T02:37:27.156Z,11.43
2023-03-25T02:40:02.413Z,11.23
2023-03-25T02:42:40.657Z,6.55
2023-03-25T02:45:32.504Z,3.65
2023-03-25T02:48:16.019Z,8.13
2023-03-25T02:50:55.262Z,7.15
2023-03-25T02:53:28.709Z,14.38
2023-03-25T02:56:00.135Z,13.20
2023-03-25T02:58:29.889Z,6.70
2023-03-25T03:00:58.804Z,6.55
2023-03-25T03:03:27.399Z,9.50
2023-03-25T03:05:59.034Z,4.90
2023-03-25T03:08:34.560Z,7.28
2023-03-25T03:11:23.207Z,7.82
2023-03-25T03:13:53.193Z,8.98
2023-03-25T03:16:24.702Z,12.38
2023-03-25T03:19:05.862Z,8.60
2023-03-25T03:21:47.493Z,7.47
2023-03-25T03:24:27.269Z,11.77
2023-03-25T03:27:09.111Z,9.90
2023-03-25T03:29:46.367Z,8.82
2023-03-25T03:32:32.594Z,10.93
2023-03-25T03:35:04.669Z,12.40
2023-03-25T03:37:40.135Z,5.22
2023-03-25T03:40:13.059Z,4.95
2023-03-25T03:43:03.268Z,3.72
2023-03-25T03:45:38.696Z,8.02
2023-03-25T03:48:12.715Z,5.18
2023-03-25T03:50:46.410Z,6.07
2023-03-25T03:53:33.167Z,7.13
2023-03-25T03:56:06.880Z,11.95
2023-03-25T03:58:38.748Z,11.10
2023-03-25T04:01:14.192Z,5.85
2023-03-25T04:03:53.327Z,10.43
2023-03-25T04:06:27.082Z,7.40
2023-03-25T04:09:18.605Z,8.38
2023-03-25T04:11:53.764Z,10.05
2023-03-25T04:14:21.086Z,7.07
2023-03-25T04:16:47.879Z,7.95
2023-03-25T04:19:18.562Z,7.85
2023-03-25T04:21:46.200Z,7.88
2023-03-25T04:24:16.573Z,11.27
2023-03-25T04:26:44.261Z,13.32
2023-03-25T04:29:13.812Z,10.30
2023-03-25T04:31:50.146Z,8.32
2023-03-25T04:34:16.990Z,9.98
2023-03-25T04:36:43.755Z,11.68
2023-03-25T04:39:14.082Z,8.40
2023-03-25T04:41:40.853Z,9.45
2023-03-25T04:44:08.035Z,10.93
2023-03-25T04:46:36.456Z,14.90
2023-03-25T04:49:06.132Z,7.85
2023-03-25T04:51:33.061Z,11.60
2023-03-25T04:54:00.835Z,10.23
2023-03-25T04:56:27.847Z,7.95
2023-03-25T04:58:54.778Z,8.63
2023-03-25T05:01:30.633Z,11.40
2023-03-25T05:04:05.798Z,13.77
2023-03-25T05:06:41.821Z,7.40
2023-03-25T05:09:15.484Z,11.18
2023-03-25T05:11:43.260Z,10.20
2023-03-25T05:14:11.908Z,8.98
2023-03-25T05:16:39.399Z,12.18
2023-03-25T05:19:07.288Z,13.50
2023-03-25T05:21:38.388Z,10.30
2023-03-25T05:24:08.359Z,12.43
2023-03-25T05:26:35.799Z,10.52
2023-03-25T05:29:08.420Z,9.10
2023-03-25T05:31:36.820Z,16.92
2023-03-25T05:34:06.614Z,9.25
2023-03-25T05:36:33.425Z,13.02
2023-03-25T05:39:00.343Z,16.73
2023-03-25T05:41:32.672Z,14.48
2023-03-25T05:44:00.841Z,14.85
2023-03-25T05:46:31.987Z,14.65
2023-03-25T05:49:00.835Z,11.90
2023-03-25T05:51:28.867Z,12.60
2023-03-25T05:53:55.657Z,10.18
2023-03-25T05:56:24.193Z,7.93
2023-03-25T05:58:53.147Z,8.75
2023-03-25T06:01:31.840Z,13.95
2023-03-25T06:04:01.699Z,11.35
2023-03-25T06:06:29.358Z,12.65
2023-03-25T06:08:56.170Z,10.10
2023-03-25T06:11:22.851Z,11.10
2023-03-25T06:13:49.913Z,11.70
2023-03-25T06:16:19.548Z,16.05
2023-03-25T06:18:50.926Z,8.73
2023-03-25T06:21:19.770Z,12.25
2023-03-25T06:23:49.986Z,18.88
2023-03-25T06:26:18.059Z,17.17
2023-03-25T06:28:46.114Z,12.90
2023-03-25T06:31:16.923Z,15.20
2023-03-25T06:33:44.884Z,9.48
2023-03-25T06:36:13.510Z,14.57
2023-03-25T06:38:40.337Z,13.20
2023-03-25T06:41:07.630Z,12.68
2023-03-25T06:43:34.857Z,17.73
2023-03-25T06:46:01.773Z,15.02
2023-03-25T06:48:28.866Z,14.20
2023-03-25T06:50:55.699Z,13.98
2023-03-25T06:53:22.605Z,14.88
2023-03-25T06:55:51.212Z,14.13
2023-03-25T06:58:18.207Z,18.20
2023-03-25T07:00:45.951Z,13.68
2023-03-25T07:03:13.187Z,18.13
2023-03-25T07:05:42.806Z,16.02
2023-03-25T07:08:09.621Z,14.70
2023-03-25T07:10:36.641Z,23.98
2023-03-25T07:13:03.305Z,16.00
2023-03-25T07:15:30.128Z,15.05
2023-03-25T07:17:57.071Z,16.02
2023-03-25T07:20:23.885Z,19.15
2023-03-25T07:22:50.733Z,12.73
2023-03-25T07:25:17.735Z,13.48
2023-03-25T07:27:44.452Z,18.08
2023-03-25T07:30:11.483Z,17.75
2023-03-25T07:32:38.433Z,18.13
2023-03-25T07:35:06.475Z,20.77
2023-03-25T07:37:33.183Z,16.13
2023-03-25T07:40:00.301Z,18.45
2023-03-25T07:42:27.013Z,13.05
2023-03-25T07:44:53.801Z,16.80
2023-03-25T07:47:20.857Z,21.75
2023-03-25T07:49:47.822Z,17.90
2023-03-25T07:52:14.581Z,21.85
2023-03-25T07:54:41.579Z,20.17
2023-03-25T07:57:08.392Z,19.33
2023-03-25T07:59:35.243Z,22.70
2023-03-25T08:02:02.675Z,16.95
2023-03-25T08:04:29.611Z,17.77
2023-03-25T08:06:56.409Z,18.73
2023-03-25T08:09:23.384Z,21.02
2023-03-25T08:11:51.301Z,22.13
2023-03-25T08:14:18.014Z,21.88
2023-03-25T08:16:45.116Z,20.65
2023-03-25T08:19:12.118Z,20.90
2023-03-25T08:21:39.071Z,20.15
2023-03-25T08:24:06.205Z,21.15
2023-03-25T08:26:34.198Z,18.75
2023-03-25T08:29:02.910Z,26.45
2023-03-25T08:31:33.479Z,22.10
2023-03-25T08:34:01.761Z,19.92
2023-03-25T08:36:28.639Z,24.60
2023-03-25T08:38:55.998Z,24.67
2023-03-25T08:41:23.005Z,25.85
2023-03-25T08:43:50.372Z,25.33
2023-03-25T08:46:17.182Z,25.33
2023-03-25T08:48:44.560Z,26.20
2023-03-25T08:51:11.324Z,23.85
2023-03-25T08:53:38.124Z,19.98
2023-03-25T08:56:05.549Z,24.88
2023-03-25T08:58:32.268Z,25.23
2023-03-25T09:00:59.038Z,20.98
2023-03-25T09:03:27.352Z,22.00
2023-03-25T09:05:54.854Z,23.83
2023-03-25T09:08:22.316Z,23.95
2023-03-25T09:10:49.388Z,19.02
2023-03-25T09:13:16.563Z,21.58
2023-03-25T09:15:43.517Z,21.30
2023-03-25T09:18:10.624Z,19.83
2023-03-25T09:20:37.596Z,20.13
2023-03-25T09:23:04.458Z,21.27
2023-03-25T09:25:31.403Z,19.05
2023-03-25T09:27:58.142Z,21.50
2023-03-25T09:30:24.924Z,24.10
2023-03-25T09:32:51.637Z,18.58
2023-03-25T09:35:18.754Z,19.98
2023-03-25T09:37:45.766Z,22.30
2023-03-25T09:40:21.213Z,19.75
2023-03-25T09:43:09.770Z,17.92
2023-03-25T09:45:41.826Z,23.27
2023-03-25T09:48:14.703Z,22.13
2023-03-25T09:50:43.303Z,18.52
2023-03-25T09:53:10.210Z,14.57
2023-03-25T09:55:42.712Z,18.17
2023-03-25T09:58:41.524Z,17.60
2023-03-25T10:01:46.664Z,15.82
2023-03-25T10:04:35.343Z,18.30
2023-03-25T10:07:36.367Z,16.90
2023-03-25T10:10:27.028Z,18.25
2023-03-25T10:13:23.864Z,20.02
2023-03-25T10:15:59.042Z,13.88
2023-03-25T10:18:44.305Z,19.15
2023-03-25T10:21:17.014Z,19.15
2023-03-25T10:24:04.753Z,20.90
2023-03-25T10:26:47.148Z,17.73
2023-03-25T10:29:18.559Z,20.48
2023-03-25T10:31:59.798Z,20.38
2023-03-25T10:34:36.187Z,18.67
2023-03-25T10:37:07.701Z,24.98
2023-03-25T10:39:39.994Z,21.08
2023-03-25T10:42:15.585Z,15.77
2023-03-25T10:44:43.824Z,17.05
2023-03-25T10:47:19.421Z,15.07
2023-03-25T10:49:48.079Z,18.35
2023-03-25T10:52:16.290Z,14.98
2023-03-25T10:54:51.710Z,11.38
2023-03-25T11:00:16.893Z,8.05
2023-03-25T11:02:44.162Z,9.15
2023-03-25T11:05:15.359Z,6.63
2023-03-25T11:07:56.395Z,9.95
2023-03-25T11:10:31.963Z,5.20
2023-03-25T11:13:03.870Z,6.28
2023-03-25T11:15:34.524Z,11.85
2023-03-25T11:18:08.308Z,11.45
2023-03-25T11:20:40.003Z,10.10
2023-03-25T11:23:14.683Z,20.58
2023-03-25T11:25:43.518Z,9.30
2023-03-25T11:28:32.736Z,10.35
2023-03-25T11:31:11.680Z,9.18
2023-03-25T11:33:40.227Z,8.32
2023-03-25T11:36:13.111Z,9.82
2023-03-25T11:38:40.938Z,10.88
2023-03-25T11:41:08.232Z,5.70
2023-03-25T11:43:38.086Z,4.57
2023-03-25T11:46:14.455Z,8.73
2023-03-25T11:48:43.270Z,4.53
2023-03-25T11:51:31.759Z,5.13
2023-03-25T11:54:02.239Z,6.75
2023-03-25T11:56:40.769Z,5.93
2023-03-25T11:59:27.133Z,6.45
2023-03-25T12:02:03.464Z,2.35
2023-03-25T12:04:31.180Z,3.35
2023-03-25T12:07:09.527Z,3.75
2023-03-25T12:09:36.739Z,5.82
2023-03-25T12:12:12.519Z,6.82
2023-03-25T12:15:08.360Z,9.45
2023-03-25T12:17:59.526Z,5.47
2023-03-25T12:20:51.313Z,4.82
2023-03-25T12:23:37.071Z,7.18
2023-03-25T12:26:11.087Z,5.18
2023-03-25T12:28:41.250Z,5.10
2023-03-25T12:31:30.124Z,8.20
2023-03-25T12:34:03.585Z,3.72
2023-03-25T12:36:48.660Z,4.20
2023-03-25T12:39:43.201Z,2.75
2023-03-25T12:42:40.039Z,5.65
2023-03-25T12:45:15.086Z,1.90
2023-03-25T12:48:23.078Z,2.45
2023-03-25T12:51:12.641Z,4.15
2023-03-25T12:53:53.246Z,8.68
2023-03-25T12:56:41.895Z,2.17
2023-03-25T12:59:17.211Z,1.92
2023-03-25T13:02:05.803Z,1.98
2023-03-25T13:04:49.210Z,5.40
2023-03-25T13:07:21.754Z,6.35
2023-03-25T13:09:57.815Z,2.00
2023-03-25T13:12:48.140Z,2.60
2023-03-25T13:15:27.304Z,2.35
2023-03-25T13:18:11.355Z,1.65
2023-03-25T13:20:43.012Z,5.78
2023-03-25T13:23:17.592Z,3.03
2023-03-25T13:25:59.219Z,1.45
2023-03-25T13:28:38.527Z,1.30
2023-03-25T13:31:14.523Z,2.45
2023-03-25T13:34:06.842Z,3.25
2023-03-25T13:36:41.400Z,3.97
2023-03-25T13:39:27.713Z,3.20
2023-03-25T13:42:07.561Z,2.60
2023-03-25T13:44:38.619Z,0.93
2023-03-25T13:47:05.277Z,2.03
2023-03-25T13:49:37.936Z,2.17
2023-03-25T13:52:07.494Z,1.23
2023-03-25T13:54:46.707Z,2.33
2023-03-25T13:57:41.449Z,1.23
2023-03-25T14:00:45.353Z,3.22
2023-03-25T14:03:49.599Z,1.58
2023-03-25T14:06:46.979Z,1.38
2023-03-25T14:09:16.767Z,2.78
2023-03-25T14:12:12.049Z,1.70
2023-03-25T14:14:49.064Z,3.75
2023-03-25T14:17:19.679Z,2.63
2023-03-25T14:19:55.321Z,2.15
2023-03-25T14:22:31.856Z,2.42
2023-03-25T14:25:00.376Z,5.93
2023-03-25T14:27:35.080Z,1.58
2023-03-25T14:30:08.625Z,2.42
2023-03-25T14:32:40.977Z,1.17
2023-03-25T14:35:41.836Z,2.17
2023-03-25T14:38:08.777Z,3.10
2023-03-25T14:43:53.042Z,1.10
2023-03-25T14:46:24.617Z,1.70
2023-03-25T14:49:05.769Z,2.72
2023-03-25T14:51:35.098Z,0.50
2023-03-25T14:54:23.705Z,1.83
2023-03-25T14:56:56.549Z,1.17
2023-03-25T14:59:30.951Z,1.95
2023-03-25T15:02:09.532Z,1.40
2023-03-25T15:04:40.157Z,1.13
2023-03-25T15:07:13.861Z,0.82
2023-03-25T15:09:52.476Z,2.15
2023-03-25T15:12:24.108Z,2.63
2023-03-25T15:14:56.860Z,1.48
2023-03-25T15:17:46.806Z,0.95
2023-03-25T15:20:28.774Z,5.32
2023-03-25T15:23:31.288Z,0.80
2023-03-25T15:26:00.930Z,1.95
2023-03-25T15:28:43.932Z,2.65
2023-03-25T15:31:42.013Z,0.80
2023-03-25T15:34:37.463Z,0.88
2023-03-25T15:37:35.984Z,4.13
2023-03-25T15:40:39.377Z,0.52
2023-03-25T15:43:06.056Z,0.40
2023-03-25T15:45:58.402Z,0.75
2023-03-25T15:48:41.693Z,0.43
2023-03-25T15:51:46.992Z,0.85
2023-03-25T15:54:25.581Z,1.00
2023-03-25T15:56:57.400Z,0.80
2023-03-25T16:00:05.557Z,0.80
2023-03-25T16:02:57.438Z,0.60
2023-03-25T16:05:24.818Z,2.60
2023-03-25T16:07:52.239Z,1.63
2023-03-25T16:10:31.045Z,1.38
2023-03-25T16:12:57.748Z,0.70
2023-03-25T16:15:30.342Z,0.50
2023-03-25T16:17:58.789Z,0.50
2023-03-25T16:20:28.807Z,0.60
2023-03-25T16:22:57.445Z,1.17
2023-03-25T16:25:38.255Z,0.43
2023-03-25T16:28:08.157Z,1.10
2023-03-25T16:30:38.996Z,1.02
2023-03-25T16:33:10.378Z,0.60
2023-03-25T16:35:41.431Z,0.38
2023-03-25T16:38:13.315Z,1.65
2023-03-25T16:40:41.463Z,3.75
2023-03-25T16:43:23.860Z,0.90
2023-03-25T16:45:52.467Z,0.57
2023-03-25T16:48:54.995Z,1.08
2023-03-25T16:51:29.920Z,0.55
2023-03-25T16:54:00.830Z,0.70
2023-03-25T16:56:37.464Z,2.45
2023-03-25T16:59:22.587Z,0.63
2023-03-25T17:01:58.090Z,2.67
2023-03-25T17:04:42.213Z,2.33
2023-03-25T17:07:14.500Z,0.85
2023-03-25T17:09:43.223Z,0.98
2023-03-25T17:12:16.895Z,2.25
2023-03-25T17:14:46.728Z,0.80
2023-03-25T17:17:22.257Z,2.13
2023-03-25T17:19:52.483Z,3.05
2023-03-25T17:22:32.278Z,5.15
2023-03-25T17:25:35.361Z,1.77
2023-03-25T17:28:34.051Z,3.05
2023-03-25T17:31:16.632Z,2.88
2023-03-25T17:33:57.878Z,1.45
2023-03-25T17:36:25.053Z,1.05
2023-03-25T17:38:53.924Z,2.00
2023-03-25T17:41:21.662Z,1.88
2023-03-25T17:43:53.146Z,0.80
2023-03-25T17:46:28.890Z,1.38
2023-03-25T17:48:57.865Z,2.83
2023-03-25T17:51:26.823Z,1.92
2023-03-25T17:53:54.313Z,1.30
2023-03-25T17:56:25.711Z,1.52
2023-03-25T17:59:04.396Z,0.75
2023-03-25T18:01:32.793Z,1.88
2023-03-25T18:03:59.578Z,1.33
2023-03-25T18:06:26.494Z,2.53
2023-03-25T18:08:53.332Z,4.95
2023-03-25T18:11:20.740Z,4.28
2023-03-25T18:13:50.164Z,1.55
2023-03-25T18:16:18.989Z,2.63
2023-03-25T18:18:46.055Z,2.33
2023-03-25T18:21:14.530Z,2.58
2023-03-25T18:23:44.760Z,1.77
2023-03-25T18:26:17.345Z,2.03
2023-03-25T18:28:45.468Z,2.20
2023-03-25T18:31:16.938Z,1.80
2023-03-25T18:33:46.360Z,4.35
2023-03-25T18:36:13.384Z,2.17
2023-03-25T18:38:40.649Z,9.10
2023-03-25T18:41:10.298Z,1.70
2023-03-25T18:43:37.208Z,1.25
2023-03-25T18:46:04.337Z,1.90
2023-03-25T18:48:31.175Z,2.97
2023-03-25T18:50:59.913Z,3.10
2023-03-25T18:53:28.753Z,2.00
2023-03-25T18:56:00.989Z,1.83
2023-03-25T18:58:33.258Z,2.15
2023-03-25T19:01:03.181Z,1.90
2023-03-25T19:03:31.414Z,2.15
2023-03-25T19:05:59.961Z,2.25
2023-03-25T19:08:28.416Z,1.65
2023-03-25T19:11:04.601Z,4.80
2023-03-25T19:13:35.242Z,2.45
2023-03-25T19:16:02.061Z,2.05
2023-03-25T19:18:31.903Z,3.65
2023-03-25T19:20:58.883Z,2.65
2023-03-25T19:23:26.012Z,2.40
2023-03-25T19:25:53.492Z,2.15
2023-03-25T19:28:22.260Z,5.88
2023-03-25T19:30:50.725Z,7.80
2023-03-25T19:33:19.304Z,5.20
2023-03-25T19:35:51.051Z,4.90
2023-03-25T19:38:22.751Z,10.18
2023-03-25T19:40:51.579Z,9.40
2023-03-25T19:43:18.789Z,9.68
2023-03-25T19:45:45.627Z,5.38
2023-03-25T19:48:12.421Z,7.60
2023-03-25T19:50:40.859Z,8.95
2023-03-25T19:53:07.922Z,9.27
2023-03-25T19:55:34.742Z,6.85
2023-03-25T19:58:02.358Z,4.03
2023-03-25T20:00:30.457Z,4.82
2023-03-25T20:03:00.777Z,5.30
2023-03-25T20:05:29.724Z,7.70
2023-03-25T20:07:56.706Z,4.80
2023-03-25T20:10:27.897Z,6.05
2023-03-25T20:12:55.392Z,8.85
2023-03-25T20:15:23.374Z,5.93
2023-03-25T20:17:51.642Z,5.32
2023-03-25T20:20:19.867Z,3.00
2023-03-25T20:22:48.396Z,2.72
2023-03-25T20:25:16.376Z,3.90
2023-03-25T20:27:44.407Z,6.40
2023-03-25T20:30:14.783Z,3.90
2023-03-25T20:32:43.212Z,2.83
2023-03-25T20:35:12.988Z,4.65
2023-03-25T20:37:41.416Z,4.50
2023-03-25T20:40:13.107Z,3.60
2023-03-25T20:42:41.907Z,3.78
2023-03-25T20:45:11.862Z,7.00
2023-03-25T20:47:38.835Z,4.65
2023-03-25T20:50:07.321Z,5.40
2023-03-25T20:52:35.928Z,6.53
2023-03-25T20:55:03.119Z,3.63
2023-03-25T20:57:29.869Z,4.75
2023-03-25T20:59:57.940Z,7.50
2023-03-25T21:02:25.232Z,6.80
2023-03-25T21:04:55.059Z,8.00
2023-03-25T21:07:22.284Z,4.57
2023-03-25T21:09:49.459Z,6.88
2023-03-25T21:12:16.484Z,4.35
2023-03-25T21:14:43.460Z,8.88
2023-03-25T21:17:10.487Z,7.88
2023-03-25T21:19:37.248Z,11.10
2023-03-25T21:22:04.354Z,6.70
2023-03-25T21:24:33.840Z,8.55
2023-03-25T21:27:00.606Z,4.90
2023-03-25T21:29:27.503Z,7.03
2023-03-25T21:31:54.493Z,5.88
2023-03-25T21:34:22.089Z,10.65
2023-03-25T21:36:48.901Z,6.95
2023-03-25T21:39:15.776Z,8.55
2023-03-25T21:41:42.662Z,7.00
2023-03-25T21:44:09.470Z,6.20
2023-03-25T21:46:36.851Z,6.22
2023-03-25T21:49:03.994Z,4.75
2023-03-25T21:51:31.079Z,8.55
2023-03-25T21:53:58.750Z,8.90
2023-03-25T21:56:27.896Z,5.70
2023-03-25T21:58:54.671Z,8.40
2023-03-25T22:01:28.879Z,7.05
2023-03-25T22:03:57.704Z,7.05
2023-03-25T22:06:27.482Z,6.32
2023-03-25T22:08:56.882Z,11.02
2023-03-25T22:11:28.987Z,5.43
2023-03-25T22:13:56.470Z,6.15
2023-03-25T22:16:23.818Z,8.27
2023-03-25T22:18:50.895Z,4.00
2023-03-25T22:21:20.442Z,9.15
2023-03-25T22:23:49.109Z,14.10
2023-03-25T22:26:17.650Z,11.70
2023-03-25T22:28:45.043Z,12.48
2023-03-25T22:31:17.835Z,8.32
2023-03-25T22:33:45.546Z,6.93
2023-03-25T22:36:15.503Z,7.28
2023-03-25T22:38:45.030Z,7.50
2023-03-25T22:41:13.680Z,9.07
2023-03-25T22:43:41.107Z,8.90
2023-03-25T22:46:09.518Z,7.72
2023-03-25T22:48:39.266Z,8.38
2023-03-25T22:51:12.466Z,9.07
2023-03-25T22:53:39.890Z,10.15
2023-03-25T22:56:07.684Z,12.88
2023-03-25T22:58:34.897Z,10.50
2023-03-25T23:01:04.334Z,6.85
2023-03-25T23:03:31.627Z,10.52
2023-03-25T23:06:07.125Z,8.13
2023-03-25T23:11:18.186Z,8.63
2023-03-25T23:13:47.838Z,8.48
2023-03-25T23:16:17.920Z,8.98
2023-03-25T23:18:45.424Z,6.30
2023-03-25T23:21:15.208Z,8.05
2023-03-25T23:23:52.910Z,7.63
2023-03-25T23:26:37.075Z,6.93
2023-03-25T23:29:08.958Z,6.22
2023-03-25T23:31:37.494Z,7.60
2023-03-25T23:34:06.698Z,5.55
2023-03-25T23:36:39.296Z,4.28
2023-03-25T23:39:08.913Z,8.90
2023-03-25T23:41:35.622Z,6.63
2023-03-25T23:44:03.566Z,5.18
2023-03-25T23:46:31.019Z,4.75
2023-03-25T23:49:04.587Z,7.38
2023-03-25T23:51:42.040Z,7.72
2023-03-25T23:54:11.561Z,6.10
2023-03-25T23:56:38.712Z,8.18
2023-03-25T23:59:06.832Z,6.75
